Time;durP1;ratioP1;P1;durP2;ratioP2;P2;SDS_P1;SDS_P2;PMS_P1;PMS_P2;Temp;Humidity;BMP_temperature;BMP_pressure;BME280_temperature;BME280_humidity;BME280_pressure;Samples;Min_cycle;Max_cycle;Signal;HPM_P1;HPM_P2
2021/04/07 00:01:42;;;;;;;;;;;;;;;;;;5034522;28;19925;-70
2021/04/07 00:04:08;;;;;;;;;;;;;;;;;;5032510;28;20335;-70
2021/04/07 00:06:34;;;;;;;;;;;;;;;;;;5014320;28;19930;-70
2021/04/07 00:09:01;;;;;;;;;;;;;;;;;;5014855;28;19971;-70
2021/04/07 00:11:27;;;;;;;;;;;;;;;;;;5014740;28;19925;-70
2021/04/07 00:13:53;;;;;;;;;;;;;;;;;;5023616;28;19975;-70
2021/04/07 00:16:19;;;;;;;;;;;;;;;;;;5029422;28;19933;-70
2021/04/07 00:18:44;;;;;;;;;;;;;;;;;;5014617;28;19972;-70
2021/04/07 00:21:10;;;;;;;;;;;;;;;;;;5014472;28;19925;-71
2021/04/07 00:23:36;;;;;;;;;;;;;;;;;;5020595;28;19932;-70
2021/04/07 00:26:02;;;;;;;;;;;;;;;;;;5033659;28;19926;-70
2021/04/07 00:28:28;;;;;;;;;;;;;;;;;;5034294;28;19971;-70
2021/04/07 00:30:54;;;;;;;;;;;;;;;;;;5034044;28;19994;-70
2021/04/07 00:33:20;;;;;;;;;;;;;;;;;;5034041;28;19987;-70
2021/04/07 00:35:46;;;;;;;;;;;;;;;;;;5032441;28;20434;-70
2021/04/07 00:38:12;;;;;;;;;;;;;;;;;;5034130;28;19929;-70
2021/04/07 00:40:38;;;;;;;;;;;;;;;;;;5027341;28;20379;-70
2021/04/07 00:43:04;;;;;;;;;;;;;;;;;;5014040;28;19925;-70
2021/04/07 00:45:30;;;;;;;;;;;;;;;;;;5013542;28;19991;-70
2021/04/07 00:47:56;;;;;;;;;;;;;;;;;;5013423;28;19945;-70
2021/04/07 00:50:23;;;;;;;;;;;;;;;;;;5013932;28;19925;-70
2021/04/07 00:52:49;;;;;;;;;;;;;;;;;;5021888;28;19964;-70
2021/04/07 00:55:16;;;;;;;;;;;;;;;;;;5021058;28;20024;-70
2021/04/07 00:57:42;;;;;;;;;;;;;;;;;;5012476;28;19980;-70
2021/04/07 01:00:09;;;;;;;;;;;;;;;;;;5013795;28;19977;-70
2021/04/07 01:02:35;;;;;;;;;;;;;;;;;;5013773;28;19979;-70
2021/04/07 01:05:01;;;;;;;;;;;;;;;;;;5021428;28;20299;-70
2021/04/07 01:07:27;;;;;;;;;;;;;;;;;;5013828;28;19925;-70
2021/04/07 01:09:53;;;;;;;;;;;;;;;;;;5013754;28;19971;-70
2021/04/07 01:12:19;;;;;;;;;;;;;;;;;;5013697;28;19948;-70
2021/04/07 01:14:45;;;;;;;;;;;;;;;;;;5013462;28;19930;-70
2021/04/07 01:17:11;;;;;;;;;;;;;;;;;;5012992;28;19925;-70
2021/04/07 01:19:37;;;;;;;;;;;;;;;;;;5012059;28;20342;-70
2021/04/07 01:22:03;;;;;;;;;;;;;;;;;;5013305;28;19979;-70
2021/04/07 01:24:29;;;;;;;;;;;;;;;;;;5013563;28;19980;-70
2021/04/07 01:26:55;;;;;;;;;;;;;;;;;;5017260;28;19977;-70
2021/04/07 01:29:21;;;;;;;;;;;;;;;;;;5033129;28;20399;-70
2021/04/07 01:31:48;;;;;;;;;;;;;;;;;;5033040;28;20378;-70
2021/04/07 01:34:32;;;;;;;;;;;;;;;;;;5033085;28;19971;-70
2021/04/07 01:36:58;;;;;;;;;;;;;;;;;;5032403;28;20383;-70
2021/04/07 01:39:25;;;;;;;;;;;;;;;;;;5032776;28;19961;-70
2021/04/07 01:41:51;;;;;;;;;;;;;;;;;;5031560;28;19987;-70
2021/04/07 01:44:17;;;;;;;;;;;;;;;;;;5032672;28;19972;-70
2021/04/07 01:46:44;;;;;;;;;;;;;;;;;;5032261;28;20404;-70
2021/04/07 01:49:10;;;;;;;;;;;;;;;;;;5032827;28;19976;-70
2021/04/07 01:51:36;;;;;;;;;;;;;;;;;;5032002;28;19972;-70
2021/04/07 01:54:05;;;;;;;;;;;;;;;;;;5032765;28;19948;-70
2021/04/07 01:56:31;;;;;;;;;;;;;;;;;;5031871;28;20403;-70
2021/04/07 01:59:01;;;;;;;;;;;;;;;;;;5032410;28;19929;-70
2021/04/07 02:01:27;;;;;;;;;;;;;;;;;;5032146;28;20410;-70
2021/04/07 02:03:53;;;;;;;;;;;;;;;;;;5012792;28;19929;-70
2021/04/07 02:06:19;;;;;;;;;;;;;;;;;;5012233;28;19976;-70
2021/04/07 02:08:45;;;;;;;;;;;;;;;;;;5012545;28;19937;-70
2021/04/07 02:11:11;;;;;;;;;;;;;;;;;;5012595;28;19972;-70
2021/04/07 02:13:37;;;;;;;;;;;;;;;;;;5012476;28;19925;-70
2021/04/07 02:16:10;;;;;;;;;;;;;;;;;;5011888;28;19932;-70
2021/04/07 02:18:36;;;;;;;;;;;;;;;;;;5012462;28;20419;-70
2021/04/07 02:21:02;;;;;;;;;;;;;;;;;;5012273;28;19980;-70
2021/04/07 02:23:28;;;;;;;;;;;;;;;;;;5028677;28;19961;-70
2021/04/07 02:25:54;;;;;;;;;;;;;;;;;;5020004;28;19996;-70
2021/04/07 02:28:20;;;;;;;;;;;;;;;;;;5011471;28;20298;-70
2021/04/07 02:30:46;;;;;;;;;;;;;;;;;;5012309;28;19959;-70
2021/04/07 02:33:12;;;;;;;;;;;;;;;;;;5012319;28;19926;-70
2021/04/07 02:35:38;;;;;;;;;;;;;;;;;;5011651;28;19930;-70
2021/04/07 02:38:06;;;;;;;;;;;;;;;;;;5012496;28;19929;-70
2021/04/07 02:40:32;;;;;;;;;;;;;;;;;;5012117;28;19973;-70
2021/04/07 02:42:58;;;;;;;;;;;;;;;;;;5023718;28;20438;-70
2021/04/07 02:45:24;;;;;;;;;;;;;;;;;;5031635;28;19933;-70
2021/04/07 02:47:50;;;;;;;;;;;;;;;;;;5031886;28;20359;-70
2021/04/07 02:50:16;;;;;;;;;;;;;;;;;;5031986;28;19929;-70
2021/04/07 02:52:42;;;;;;;;;;;;;;;;;;5022489;28;19926;-70
2021/04/07 02:55:08;;;;;;;;;;;;;;;;;;5012093;28;19930;-70
2021/04/07 02:57:34;;;;;;;;;;;;;;;;;;5011575;28;20450;-70
2021/04/07 03:00:00;;;;;;;;;;;;;;;;;;5012064;28;19925;-70
2021/04/07 03:02:26;;;;;;;;;;;;;;;;;;5018808;28;19984;-70
2021/04/07 03:04:52;;;;;;;;;;;;;;;;;;5013259;28;19926;-70
2021/04/07 03:07:18;;;;;;;;;;;;;;;;;;5011416;28;19932;-70
2021/04/07 03:09:44;;;;;;;;;;;;;;;;;;5011846;28;19972;-70
2021/04/07 03:12:10;;;;;;;;;;;;;;;;;;5015827;28;19980;-70
2021/04/07 03:14:36;;;;;;;;;;;;;;;;;;5015741;28;19976;-70
2021/04/07 03:17:02;;;;;;;;;;;;;;;;;;5015405;28;19954;-70
2021/04/07 03:19:28;;;;;;;;;;;;;;;;;;5015589;28;20004;-71
2021/04/07 03:21:54;;;;;;;;;;;;;;;;;;5051076;23;19925;-68
2021/04/07 03:24:20;;;;;;;;;;;;;;;;;;5035637;28;19972;-68
2021/04/07 03:26:45;;;;;;;;;;;;;;;;;;5034594;28;20445;-69
2021/04/07 03:29:11;;;;;;;;;;;;;;;;;;5035407;28;19932;-69
2021/04/07 03:31:37;;;;;;;;;;;;;;;;;;5035055;28;19986;-69
2021/04/07 03:34:03;;;;;;;;;;;;;;;;;;5034989;28;19952;-69
2021/04/07 03:36:29;;;;;;;;;;;;;;;;;;5034189;28;19925;-69
2021/04/07 03:38:55;;;;;;;;;;;;;;;;;;5035043;28;19933;-69
2021/04/07 03:41:21;;;;;;;;;;;;;;;;;;5035145;28;19929;-69
2021/04/07 03:43:47;;;;;;;;;;;;;;;;;;5033881;28;19925;-68
2021/04/07 03:46:15;;;;;;;;;;;;;;;;;;5034586;28;19929;-69
2021/04/07 03:48:41;;;;;;;;;;;;;;;;;;5035512;28;20376;-69
2021/04/07 03:51:08;;;;;;;;;;;;;;;;;;5035320;28;19996;-70
2021/04/07 03:53:34;;;;;;;;;;;;;;;;;;5014889;28;20004;-69
2021/04/07 03:56:00;;;;;;;;;;;;;;;;;;5014508;28;19926;-69
2021/04/07 03:58:26;;;;;;;;;;;;;;;;;;5015406;28;19932;-70
2021/04/07 04:00:52;;;;;;;;;;;;;;;;;;5014995;28;19932;-70
2021/04/07 04:03:19;;;;;;;;;;;;;;;;;;5014706;28;19925;-68
2021/04/07 04:05:45;;;;;;;;;;;;;;;;;;5013037;28;19957;-68
2021/04/07 04:08:11;;;;;;;;;;;;;;;;;;5014064;28;20431;-69
2021/04/07 04:10:37;;;;;;;;;;;;;;;;;;5015183;28;20068;-68
2021/04/07 04:13:03;;;;;;;;;;;;;;;;;;5015137;28;19929;-69
2021/04/07 04:15:29;;;;;;;;;;;;;;;;;;5014805;28;20343;-69
2021/04/07 04:17:55;;;;;;;;;;;;;;;;;;5014974;28;19925;-69
2021/04/07 04:20:21;;;;;;;;;;;;;;;;;;5014750;28;19972;-69
2021/04/07 04:22:47;;;;;;;;;;;;;;;;;;5014925;28;19926;-69
2021/04/07 04:25:14;;;;;;;;;;;;;;;;;;5014546;28;19983;-68
2021/04/07 04:27:40;;;;;;;;;;;;;;;;;;5014568;28;19926;-70
2021/04/07 04:30:06;;;;;;;;;;;;;;;;;;5018538;28;20307;-70
2021/04/07 04:32:32;;;;;;;;;;;;;;;;;;5014664;28;20427;-70
2021/04/07 04:34:58;;;;;;;;;;;;;;;;;;5014631;28;20012;-69
2021/04/07 04:37:24;;;;;;;;;;;;;;;;;;5014046;28;20307;-69
2021/04/07 04:39:50;;;;;;;;;;;;;;;;;;5014514;28;19926;-69
2021/04/07 04:42:16;;;;;;;;;;;;;;;;;;5014320;28;20495;-69
2021/04/07 04:44:43;;;;;;;;;;;;;;;;;;5014218;28;19960;-68
2021/04/07 04:47:08;;;;;;;;;;;;;;;;;;5013925;28;19930;-69
2021/04/07 04:49:48;;;;;;;;;;;;;;;;;;5014158;28;19932;-68
2021/04/07 04:52:14;;;;;;;;;;;;;;;;;;5014276;28;20304;-69
2021/04/07 04:54:40;;;;;;;;;;;;;;;;;;5022250;28;19932;-68
2021/04/07 04:57:05;;;;;;;;;;;;;;;;;;5033293;28;19925;-68
2021/04/07 04:59:31;;;;;;;;;;;;;;;;;;5033971;28;19925;-69
2021/04/07 05:01:57;;;;;;;;;;;;;;;;;;5033668;28;19979;-70
2021/04/07 05:04:23;;;;;;;;;;;;;;;;;;5033880;28;20276;-69
2021/04/07 05:06:49;;;;;;;;;;;;;;;;;;5033084;28;19979;-70
2021/04/07 05:09:15;;;;;;;;;;;;;;;;;;5033885;28;19929;-69
2021/04/07 05:11:41;;;;;;;;;;;;;;;;;;5033565;28;19929;-69
2021/04/07 05:14:07;;;;;;;;;;;;;;;;;;5020756;28;19949;-69
2021/04/07 05:16:33;;;;;;;;;;;;;;;;;;5013065;28;19936;-70
2021/04/07 05:18:59;;;;;;;;;;;;;;;;;;5013968;28;19926;-70
2021/04/07 05:21:25;;;;;;;;;;;;;;;;;;5013450;28;20372;-69
2021/04/07 05:23:51;;;;;;;;;;;;;;;;;;5013420;28;19933;-69
2021/04/07 05:26:17;;;;;;;;;;;;;;;;;;5012823;28;20380;-69
2021/04/07 05:28:43;;;;;;;;;;;;;;;;;;5013917;28;19984;-68
2021/04/07 05:31:09;;;;;;;;;;;;;;;;;;5013401;28;19933;-69
2021/04/07 05:33:36;;;;;;;;;;;;;;;;;;5027109;28;19960;-70
2021/04/07 05:36:02;;;;;;;;;;;;;;;;;;5023979;28;19979;-69
2021/04/07 05:38:28;;;;;;;;;;;;;;;;;;5013377;28;19926;-70
2021/04/07 05:40:55;;;;;;;;;;;;;;;;;;5013420;28;19979;-70
2021/04/07 05:43:21;;;;;;;;;;;;;;;;;;5013371;28;19987;-69
2021/04/07 05:45:47;;;;;;;;;;;;;;;;;;5012504;28;20349;-69
2021/04/07 05:48:13;;;;;;;;;;;;;;;;;;5013037;28;19972;-69
2021/04/07 05:50:40;;;;;;;;;;;;;;;;;;5011859;28;19925;-70
2021/04/07 05:53:06;;;;;;;;;;;;;;;;;;5013287;28;19968;-69
2021/04/07 05:55:32;;;;;;;;;;;;;;;;;;5012664;28;19925;-70
2021/04/07 05:58:05;;;;;;;;;;;;;;;;;;5013278;28;19980;-68
2021/04/07 06:00:31;;;;;;;;;;;;;;;;;;5013038;28;19978;-68
2021/04/07 06:02:58;;;;;;;;;;;;;;;;;;5013190;28;20305;-69
2021/04/07 06:05:24;;;;;;;;;;;;;;;;;;5012522;28;19933;-69
2021/04/07 06:07:50;;;;;;;;;;;;;;;;;;5012902;28;20407;-69
2021/04/07 06:10:16;;;;;;;;;;;;;;;;;;5011691;28;19930;-69
2021/04/07 06:12:42;;;;;;;;;;;;;;;;;;5012806;28;19972;-69
2021/04/07 06:15:12;;;;;;;;;;;;;;;;;;5012932;28;19930;-70
2021/04/07 06:17:41;;;;;;;;;;;;;;;;;;5012476;28;19933;-70
2021/04/07 06:20:07;;;;;;;;;;;;;;;;;;5012517;28;20308;-70
2021/04/07 06:22:33;;;;;;;;;;;;;;;;;;5012654;28;20043;-70
2021/04/07 06:24:59;;;;;;;;;;;;;;;;;;5031144;28;20364;-70
2021/04/07 06:27:26;;;;;;;;;;;;;;;;;;5031998;28;19976;-70
2021/04/07 06:29:51;;;;;;;;;;;;;;;;;;5032401;28;20308;-69
2021/04/07 06:32:17;;;;;;;;;;;;;;;;;;5032345;28;19936;-69
2021/04/07 06:34:43;;;;;;;;;;;;;;;;;;5032691;28;20357;-70
2021/04/07 06:37:09;;;;;;;;;;;;;;;;;;5020237;28;19926;-70
2021/04/07 06:39:35;;;;;;;;;;;;;;;;;;5011409;28;19932;-71
2021/04/07 06:42:01;;;;;;;;;;;;;;;;;;5012347;28;20351;-68
2021/04/07 06:44:27;;;;;;;;;;;;;;;;;;5012330;28;19925;-68
2021/04/07 06:46:54;;;;;;;;;;;;;;;;;;5015134;28;19956;-68
2021/04/07 06:49:20;;;;;;;;;;;;;;;;;;5015375;28;19926;-68
2021/04/07 06:51:46;;;;;;;;;;;;;;;;;;5014285;28;19926;-68
2021/04/07 06:54:12;;;;;;;;;;;;;;;;;;5013459;28;19937;-69
2021/04/07 06:56:38;;;;;;;;;;;;;;;;;;5013461;28;19926;-69
2021/04/07 06:59:04;;;;;;;;;;;;;;;;;;5014020;28;20561;-68
2021/04/07 07:01:29;;;;;;;;;;;;;;;;;;5012610;28;19929;-68
2021/04/07 07:03:56;;;;;;;;;;;;;;;;;;5013996;28;19929;-67
2021/04/07 07:06:22;;;;;;;;;;;;;;;;;;5012931;28;20388;-68
2021/04/07 07:08:48;;;;;;;;;;;;;;;;;;5012665;28;19925;-68
2021/04/07 07:11:15;;;;;;;;;;;;;;;;;;5013948;28;20368;-68
2021/04/07 07:13:41;;;;;;;;;;;;;;;;;;5013687;28;19975;-68
2021/04/07 07:16:09;;;;;;;;;;;;;;;;;;5013546;28;19992;-67
2021/04/07 07:18:35;;;;;;;;;;;;;;;;;;5013379;28;20021;-67
2021/04/07 07:21:01;;;;;;;;;;;;;;;;;;5014057;28;20288;-68
2021/04/07 07:23:31;;;;;;;;;;;;;;;;;;5013504;28;19995;-67
2021/04/07 07:26:03;;;;;;;;;;;;;;;;;;5013418;28;19969;-67
2021/04/07 07:28:39;;;;;;;;;;;;;;;;;;5013746;28;20427;-67
2021/04/07 07:31:25;;;;;;;;;;;;;;;;;;5013214;28;20170;-67
2021/04/07 07:33:52;;;;;;;;;;;;;;;;;;5020806;28;19926;-68
2021/04/07 07:36:18;;;;;;;;;;;;;;;;;;5033457;28;19933;-69
2021/04/07 07:38:53;;;;;;;;;;;;;;;;;;5019806;28;20419;-69
2021/04/07 07:41:21;;;;;;;;;;;;;;;;;;5001211;28;19976;-66
2021/04/07 07:43:47;;;;;;;;;;;;;;;;;;5002071;28;19929;-67
2021/04/07 07:46:14;;;;;;;;;;;;;;;;;;5004102;28;20001;-66
2021/04/07 07:48:41;;;;;;;;;;;;;;;;;;4998847;28;20348;-66
2021/04/07 07:51:13;;;;;;;;;;;;;;;;;;5001607;28;19988;-66
2021/04/07 07:53:39;;;;;;;;;;;;;;;;;;5000514;28;20340;-66
2021/04/07 07:56:05;;;;;;;;;;;;;;;;;;4997808;28;20345;-66
2021/04/07 07:58:31;;;;;;;;;;;;;;;;;;5002517;28;20020;-70
2021/04/07 08:01:04;;;;;;;;;;;;;;;;;;4999015;28;19925;-71
2021/04/07 08:03:30;;;;;;;;;;;;;;;;;;4999589;28;19948;-75
2021/04/07 08:06:00;;;;;;;;;;;;;;;;;;4996834;28;20004;-70
2021/04/07 08:08:44;;;;;;;;;;;;;;;;;;4998919;28;19926;-75
2021/04/07 08:11:10;;;;;;;;;;;;;;;;;;4995905;28;19932;-73
2021/04/07 08:17:04;;;;;;;;;;;;;;;;;;5006260;28;19924;-73
2021/04/07 08:19:32;;;;;;;;;;;;;;;;;;4988138;28;19932;-73
2021/04/07 08:26:20;;;;;;;;;;;;;;;;;;;;;
2021/04/07 08:29:12;;;;;;;;;;;;;;;;;;5000637;28;20388;-74
2021/04/07 08:31:57;;;;;;;;;;;;;;;;;;5000695;28;19973;-75
2021/04/07 08:34:26;;;;;;;;;;;;;;;;;;4997911;28;19932;-71
2021/04/07 08:36:52;;;;;;;;;;;;;;;;;;5003762;28;19929;-71
2021/04/07 08:39:18;;;;;;;;;;;;;;;;;;4976174;28;19972;-71
2021/04/07 08:41:45;;;;;;;;;;;;;;;;;;4997962;28;19972;-68
2021/04/07 08:44:11;;;;;;;;;;;;;;;;;;5001884;28;19926;-68
2021/04/07 08:46:42;;;;;;;;;;;;;;;;;;4996620;28;19941;-68
2021/04/07 08:49:08;;;;;;;;;;;;;;;;;;4998219;28;20040;-68
2021/04/07 08:51:34;;;;;;;;;;;;;;;;;;4999462;28;20366;-68
2021/04/07 08:54:00;;;;;;;;;;;;;;;;;;5005307;28;19980;-69
2021/04/07 08:56:30;;;;;;;;;;;;;;;;;;5006380;28;20032;-69
2021/04/07 08:58:56;;;;;;;;;;;;;;;;;;4999336;28;19961;-68
2021/04/07 09:01:28;;;;;;;;;;;;;;;;;;5002079;28;19964;-68
2021/04/07 09:04:05;;;;;;;;;;;;;;;;;;5001612;28;19932;-68
2021/04/07 09:06:31;;;;;;;;;;;;;;;;;;5001810;28;19926;-68
2021/04/07 09:08:57;;;;;;;;;;;;;;;;;;4999756;28;20372;-68
2021/04/07 09:11:27;;;;;;;;;;;;;;;;;;4998187;28;19969;-67
2021/04/07 09:13:59;;;;;;;;;;;;;;;;;;4999946;28;19934;-68
2021/04/07 09:16:29;;;;;;;;;;;;;;;;;;5001380;28;19961;-68
2021/04/07 09:18:55;;;;;;;;;;;;;;;;;;5002413;28;19961;-68
2021/04/07 09:21:21;;;;;;;;;;;;;;;;;;5040392;23;19924;-70
2021/04/07 09:23:55;;;;;;;;;;;;;;;;;;5063873;28;19931;-70
2021/04/07 09:26:24;;;;;;;;;;;;;;;;;;5050953;28;19963;-70
2021/04/07 09:28:50;;;;;;;;;;;;;;;;;;5051629;28;19979;-70
2021/04/07 09:31:18;;;;;;;;;;;;;;;;;;5044231;28;19964;-70
2021/04/07 09:33:48;;;;;;;;;;;;;;;;;;5028601;28;19957;-69
2021/04/07 09:36:14;;;;;;;;;;;;;;;;;;5031271;28;19925;-70
2021/04/07 09:38:47;;;;;;;;;;;;;;;;;;5031493;28;19929;-71
2021/04/07 09:41:14;;;;;;;;;;;;;;;;;;5029770;28;20395;-70
2021/04/07 09:43:40;;;;;;;;;;;;;;;;;;5031467;28;19979;-69
2021/04/07 09:46:07;;;;;;;;;;;;;;;;;;5031184;28;20403;-70
2021/04/07 09:48:36;;;;;;;;;;;;;;;;;;5031316;28;19936;-73
2021/04/07 09:51:13;;;;;;;;;;;;;;;;;;5031491;28;19932;-71
2021/04/07 09:53:52;;;;;;;;;;;;;;;;;;5016106;28;20048;-76
2021/04/07 09:56:20;;;;;;;;;;;;;;;;;;5011440;28;21575;-74
2021/04/07 09:58:48;;;;;;;;;;;;;;;;;;5031768;28;19971;-74
2021/04/07 10:01:15;;;;;;;;;;;;;;;;;;5024057;28;19925;-74
2021/04/07 10:03:47;;;;;;;;;;;;;;;;;;5030362;28;19960;-74
2021/04/07 10:06:17;;;;;;;;;;;;;;;;;;5030999;28;20350;-72
2021/04/07 10:08:42;;;;;;;;;;;;;;;;;;5030952;28;20006;-73
2021/04/07 10:11:09;;;;;;;;;;;;;;;;;;5030645;28;19951;-75
2021/04/07 10:13:35;;;;;;;;;;;;;;;;;;5029980;28;20283;-76
2021/04/07 10:16:12;;;;;;;;;;;;;;;;;;5029463;28;20380;-71
2021/04/07 10:18:38;;;;;;;;;;;;;;;;;;5029969;28;19925;-74
2021/04/07 10:21:11;;;;;;;;;;;;;;;;;;5015259;28;20430;-74
2021/04/07 10:23:39;;;;;;;;;;;;;;;;;;5029823;28;19929;-72
2021/04/07 10:26:05;;;;;;;;;;;;;;;;;;5029018;28;20185;-72
2021/04/07 10:28:31;;;;;;;;;;;;;;;;;;5019134;28;19973;-71
2021/04/07 10:30:57;;;;;;;;;;;;;;;;;;5029144;28;19987;-73
2021/04/07 10:33:27;;;;;;;;;;;;;;;;;;5030689;28;20023;-73
2021/04/07 10:36:00;;;;;;;;;;;;;;;;;;5030020;28;20367;-73
2021/04/07 10:38:32;;;;;;;;;;;;;;;;;;5018483;28;19933;-72
2021/04/07 10:40:59;;;;;;;;;;;;;;;;;;5023772;28;20006;-72
2021/04/07 10:43:29;;;;;;;;;;;;;;;;;;5029217;28;19983;-73
2021/04/07 10:46:01;;;;;;;;;;;;;;;;;;5029755;28;20023;-72
2021/04/07 10:48:30;;;;;;;;;;;;;;;;;;5012581;28;19937;-74
2021/04/07 10:50:57;;;;;;;;;;;;;;;;;;5029757;28;19996;-71
2021/04/07 10:53:36;;;;;;;;;;;;;;;;;;5029478;28;20062;-74
2021/04/07 10:56:13;;;;;;;;;;;;;;;;;;5018501;28;19925;-68
2021/04/07 10:58:39;;;;;;;;;;;;;;;;;;5028677;28;19929;-69
2021/04/07 11:01:05;;;;;;;;;;;;;;;;;;5029557;28;19975;-68
2021/04/07 11:03:31;;;;;;;;;;;;;;;;;;5029812;28;19925;-72
2021/04/07 11:05:58;;;;;;;;;;;;;;;;;;5028624;28;20014;-69
2021/04/07 11:08:33;;;;;;;;;;;;;;;;;;5030049;28;19972;-72
2021/04/07 11:11:03;;;;;;;;;;;;;;;;;;5028803;28;19960;-77
2021/04/07 11:13:29;;;;;;;;;;;;;;;;;;5022466;28;19983;-74
2021/04/07 11:16:05;;;;;;;;;;;;;;;;;;5027559;28;19971;-73
2021/04/07 11:18:31;;;;;;;;;;;;;;;;;;5028370;28;19929;-71
2021/04/07 11:20:57;;;;;;;;;;;;;;;;;;5029258;28;20047;-71
2021/04/07 11:23:23;;;;;;;;;;;;;;;;;;5029100;28;19987;-72
2021/04/07 11:25:51;;;;;;;;;;;;;;;;;;5028076;28;19926;-73
2021/04/07 11:28:20;;;;;;;;;;;;;;;;;;5029771;28;19932;-73
2021/04/07 11:33:25;;;;;;;;;;;;;;;;;;5031382;28;20284;-70
2021/04/07 11:38:39;;;;;;;;;;;;;;;;;;5032887;28;19968;-72
2021/04/07 11:46:36;;;;;;;;;;;;;;;;;;5032140;28;20395;-74
2021/04/07 11:49:05;;;;;;;;;;;;;;;;;;5021424;28;19925;-73
2021/04/07 11:51:34;;;;;;;;;;;;;;;;;;5031363;28;19975;-75
2021/04/07 11:54:00;;;;;;;;;;;;;;;;;;5032838;28;19929;-74
2021/04/07 11:56:26;;;;;;;;;;;;;;;;;;5032856;28;19968;-74
2021/04/07 11:58:52;;;;;;;;;;;;;;;;;;5032515;28;20598;-72
2021/04/07 12:01:18;;;;;;;;;;;;;;;;;;5032507;28;20364;-72
2021/04/07 12:03:44;;;;;;;;;;;;;;;;;;5032479;28;19972;-77
2021/04/07 12:06:10;;;;;;;;;;;;;;;;;;5032958;28;19929;-74
2021/04/07 12:08:36;;;;;;;;;;;;;;;;;;5032543;28;20292;-72
2021/04/07 12:11:02;;;;;;;;;;;;;;;;;;5032517;28;20379;-74
2021/04/07 12:13:29;;;;;;;;;;;;;;;;;;5032306;28;19929;-74
2021/04/07 12:15:55;;;;;;;;;;;;;;;;;;5030864;28;19964;-74
2021/04/07 12:18:22;;;;;;;;;;;;;;;;;;5032408;28;20384;-73
2021/04/07 12:20:48;;;;;;;;;;;;;;;;;;5032370;28;19972;-72
2021/04/07 12:23:14;;;;;;;;;;;;;;;;;;5032208;28;20744;-71
2021/04/07 12:25:42;;;;;;;;;;;;;;;;;;5031428;28;19994;-70
2021/04/07 12:28:09;;;;;;;;;;;;;;;;;;5032013;28;20291;-70
2021/04/07 12:30:47;;;;;;;;;;;;;;;;;;5031992;28;19936;-70
2021/04/07 12:33:16;;;;;;;;;;;;;;;;;;5031698;28;19925;-70
2021/04/07 12:38:31;;;;;;;;;;;;;;;;;;5032401;28;19929;-69
2021/04/07 12:41:00;;;;;;;;;;;;;;;;;;5031694;28;19925;-70
2021/04/07 12:43:27;;;;;;;;;;;;;;;;;;5030354;28;19929;-69
2021/04/07 12:45:53;;;;;;;;;;;;;;;;;;5031101;28;20346;-70
2021/04/07 12:48:19;;;;;;;;;;;;;;;;;;5032795;28;20395;-69
2021/04/07 12:50:45;;;;;;;;;;;;;;;;;;5025764;28;19972;-72
2021/04/07 12:53:12;;;;;;;;;;;;;;;;;;5028156;28;20370;-71
2021/04/07 12:55:38;;;;;;;;;;;;;;;;;;5029880;28;19929;-73
2021/04/07 12:58:04;;;;;;;;;;;;;;;;;;5023983;28;19933;-69
2021/04/07 13:00:30;;;;;;;;;;;;;;;;;;5028627;28;19929;-74
2021/04/07 13:02:56;;;;;;;;;;;;;;;;;;5011604;28;19968;-74
2021/04/07 13:05:22;;;;;;;;;;;;;;;;;;5029743;28;19932;-70
2021/04/07 13:07:48;;;;;;;;;;;;;;;;;;5029699;28;19999;-69
2021/04/07 13:10:18;;;;;;;;;;;;;;;;;;5031299;28;19929;-69
2021/04/07 13:12:44;;;;;;;;;;;;;;;;;;5029043;28;19992;-73
2021/04/07 13:15:10;;;;;;;;;;;;;;;;;;5015968;28;20504;-73
2021/04/07 13:17:36;;;;;;;;;;;;;;;;;;5010869;28;19932;-73
2021/04/07 13:20:04;;;;;;;;;;;;;;;;;;5006179;28;19932;-71
2021/04/07 13:22:33;;;;;;;;;;;;;;;;;;5027988;28;19925;-73
2021/04/07 13:25:00;;;;;;;;;;;;;;;;;;5005289;28;19929;-70
2021/04/07 13:27:27;;;;;;;;;;;;;;;;;;5029219;28;19925;-72
2021/04/07 13:29:53;;;;;;;;;;;;;;;;;;5029343;28;19929;-73
2021/04/07 13:32:24;;;;;;;;;;;;;;;;;;5023199;28;19932;-71
2021/04/07 13:37:34;;;;;;;;;;;;;;;;;;5028754;28;19933;-70
2021/04/07 13:40:35;;;;;;;;;;;;;;;;;;5024480;28;19929;-69
2021/04/07 13:42:56;;;;;;;;;;;;;;;;;;5027382;28;19929;-69
2021/04/07 13:45:30;;;;;;;;;;;;;;;;;;5028790;28;19975;-69
2021/04/07 13:48:00;;;;;;;;;;;;;;;;;;5030385;28;19934;-69
2021/04/07 13:50:26;;;;;;;;;;;;;;;;;;5028907;28;20353;-70
2021/04/07 13:52:54;;;;;;;;;;;;;;;;;;5027593;28;19925;-73
2021/04/07 13:55:21;;;;;;;;;;;;;;;;;;5029073;28;19933;-74
2021/04/07 13:57:47;;;;;;;;;;;;;;;;;;5029464;28;19965;-73
2021/04/07 14:00:15;;;;;;;;;;;;;;;;;;5027522;28;19936;-74
2021/04/07 14:02:42;;;;;;;;;;;;;;;;;;5028587;28;19925;-75
2021/04/07 14:05:25;;;;;;;;;;;;;;;;;;5030159;28;20297;-75
2021/04/07 14:07:58;;;;;;;;;;;;;;;;;;5028494;28;19983;-75
2021/04/07 14:10:42;;;;;;;;;;;;;;;;;;5029358;28;19979;-75
2021/04/07 14:13:11;;;;;;;;;;;;;;;;;;5001860;28;19929;-73
2021/04/07 14:15:40;;;;;;;;;;;;;;;;;;5028412;28;19967;-76
2021/04/07 14:18:07;;;;;;;;;;;;;;;;;;5029567;28;19929;-73
2021/04/07 14:20:33;;;;;;;;;;;;;;;;;;5018097;28;19971;-73
2021/04/07 14:23:01;;;;;;;;;;;;;;;;;;5028068;28;19933;-76
2021/04/07 14:25:28;;;;;;;;;;;;;;;;;;5028664;28;19947;-73
2021/04/07 14:27:58;;;;;;;;;;;;;;;;;;5028908;28;19964;-74
2021/04/07 14:30:24;;;;;;;;;;;;;;;;;;5026650;28;19929;-69
2021/04/07 14:32:50;;;;;;;;;;;;;;;;;;5026528;28;19934;-72
2021/04/07 14:35:16;;;;;;;;;;;;;;;;;;5027170;28;19952;-71
2021/04/07 14:37:46;;;;;;;;;;;;;;;;;;5038091;28;20392;-71
2021/04/07 14:40:13;;;;;;;;;;;;;;;;;;5025602;28;19925;-72
2021/04/07 14:42:39;;;;;;;;;;;;;;;;;;5026507;28;20406;-70
2021/04/07 14:45:06;;;;;;;;;;;;;;;;;;5011743;28;20016;-71
2021/04/07 14:47:32;;;;;;;;;;;;;;;;;;5027414;28;19983;-73
2021/04/07 14:49:58;;;;;;;;;;;;;;;;;;5026331;28;19976;-71
2021/04/07 14:52:26;;;;;;;;;;;;;;;;;;5026848;28;20044;-71
2021/04/07 14:54:57;;;;;;;;;;;;;;;;;;5027465;28;19929;-71
2021/04/07 14:57:23;;;;;;;;;;;;;;;;;;5026460;28;20365;-72
2021/04/07 14:59:49;;;;;;;;;;;;;;;;;;5028412;28;20403;-71
2021/04/07 15:02:15;;;;;;;;;;;;;;;;;;5028742;28;19933;-73
2021/04/07 15:04:41;;;;;;;;;;;;;;;;;;5027604;28;20474;-71
2021/04/07 15:07:07;;;;;;;;;;;;;;;;;;5028881;28;19940;-71
2021/04/07 15:09:33;;;;;;;;;;;;;;;;;;5032619;28;19999;-69
2021/04/07 15:12:01;;;;;;;;;;;;;;;;;;5033652;28;19952;-69
2021/04/07 15:14:28;;;;;;;;;;;;;;;;;;5032406;28;19933;-70
2021/04/07 15:16:54;;;;;;;;;;;;;;;;;;5026805;28;19955;-70
2021/04/07 15:19:21;;;;;;;;;;;;;;;;;;5012876;28;20012;-70
2021/04/07 15:21:47;;;;;;;;;;;;;;;;;;5013475;28;19972;-70
2021/04/07 15:24:15;;;;;;;;;;;;;;;;;;5013408;28;20007;-70
2021/04/07 15:26:47;;;;;;;;;;;;;;;;;;5011791;28;20190;-69
2021/04/07 15:29:12;;;;;;;;;;;;;;;;;;5016210;28;19975;-69
2021/04/07 15:31:38;;;;;;;;;;;;;;;;;;5031743;28;19932;-70
2021/04/07 15:34:05;;;;;;;;;;;;;;;;;;5013475;28;19926;-70
2021/04/07 15:36:30;;;;;;;;;;;;;;;;;;5012909;28;19932;-70
2021/04/07 15:38:56;;;;;;;;;;;;;;;;;;5013366;28;20289;-70
2021/04/07 15:41:22;;;;;;;;;;;;;;;;;;5013220;28;20328;-71
2021/04/07 15:43:48;;;;;;;;;;;;;;;;;;5012777;28;20454;-73
2021/04/07 15:46:15;;;;;;;;;;;;;;;;;;5012890;28;20024;-78
2021/04/07 15:48:47;;;;;;;;;;;;;;;;;;5011523;28;19936;-73
2021/04/07 15:51:13;;;;;;;;;;;;;;;;;;5012867;28;19957;-73
2021/04/07 15:53:42;;;;;;;;;;;;;;;;;;5012977;28;20328;-74
2021/04/07 15:56:08;;;;;;;;;;;;;;;;;;5012379;28;19933;-74
2021/04/07 15:58:34;;;;;;;;;;;;;;;;;;5012989;28;20091;-71
2021/04/07 16:01:00;;;;;;;;;;;;;;;;;;5012670;28;19987;-71
2021/04/07 16:03:26;;;;;;;;;;;;;;;;;;5012110;28;20044;-74
2021/04/07 16:05:53;;;;;;;;;;;;;;;;;;5012124;28;19930;-72
2021/04/07 16:08:19;;;;;;;;;;;;;;;;;;5012133;28;19930;-72
2021/04/07 16:10:45;;;;;;;;;;;;;;;;;;5012512;28;19925;-72
2021/04/07 16:13:11;;;;;;;;;;;;;;;;;;5012834;28;20415;-73
2021/04/07 16:15:37;;;;;;;;;;;;;;;;;;5011338;28;20035;-73
2021/04/07 16:18:03;;;;;;;;;;;;;;;;;;5012631;28;19929;-73
2021/04/07 16:20:31;;;;;;;;;;;;;;;;;;5012369;28;19979;-72
2021/04/07 16:22:57;;;;;;;;;;;;;;;;;;5012287;28;20022;-73
2021/04/07 16:25:23;;;;;;;;;;;;;;;;;;5012359;28;19925;-73
2021/04/07 16:27:50;;;;;;;;;;;;;;;;;;5011776;28;20522;-73
2021/04/07 16:30:17;;;;;;;;;;;;;;;;;;5012283;28;19965;-73
2021/04/07 16:32:44;;;;;;;;;;;;;;;;;;5010952;28;19929;-73
2021/04/07 16:35:26;;;;;;;;;;;;;;;;;;5011636;28;19933;-72
2021/04/07 16:37:52;;;;;;;;;;;;;;;;;;5012289;28;19930;-73
2021/04/07 16:40:18;;;;;;;;;;;;;;;;;;5012325;28;20003;-72
2021/04/07 16:42:44;;;;;;;;;;;;;;;;;;5010282;28;19930;-73
2021/04/07 16:45:11;;;;;;;;;;;;;;;;;;5010917;28;19936;-73
2021/04/07 16:47:36;;;;;;;;;;;;;;;;;;5015120;28;19971;-72
2021/04/07 16:50:04;;;;;;;;;;;;;;;;;;5016148;28;19940;-73
2021/04/07 16:52:30;;;;;;;;;;;;;;;;;;5030716;28;19929;-72
2021/04/07 16:54:55;;;;;;;;;;;;;;;;;;5021992;28;20193;-73
2021/04/07 16:57:21;;;;;;;;;;;;;;;;;;5028966;28;19947;-74
2021/04/07 16:59:47;;;;;;;;;;;;;;;;;;5030553;28;19931;-73
2021/04/07 17:02:13;;;;;;;;;;;;;;;;;;5031736;28;19929;-73
2021/04/07 17:04:39;;;;;;;;;;;;;;;;;;5030918;28;20024;-73
2021/04/07 17:07:05;;;;;;;;;;;;;;;;;;5029222;28;19933;-73
2021/04/07 17:09:31;;;;;;;;;;;;;;;;;;5029990;28;20421;-73
2021/04/07 17:11:58;;;;;;;;;;;;;;;;;;5017448;28;20041;-74